N8358U KLAX-CYVR
Flight info
| Callsign | N8358U |
|---|---|
| Flight time | N/A |
| Altitude | 28000 |
| Route | SUMMR2 SCTRR SNS J126 SAC LMT J65 SEA PAE GRIZZ9 |
| Aircraft | C700/M-SDFGZLB1PBNO2/G |
Departure
| Time | 2026-05-06 21:02 |
|---|---|
| Airport | Los Angeles International Airport (KLAX) |
Arrival
| Time | N/A |
|---|---|
| Airport | Vancouver International Airport (CYVR) |
| Time | Latitude | Longitude | Altitude | Speed | Heading |
|---|---|---|---|---|---|
| 2026-05-06 20:44 | 33.93391 | -118.38836 | 120 ft | 0 kts | 173° |
| 2026-05-06 20:53 | 33.93406 | -118.38838 | 119 ft | 2 kts | 173° |
| 2026-05-06 20:54 | 33.93422 | -118.38841 | 118 ft | 2 kts | 173° |
| 2026-05-06 20:54 | 33.93438 | -118.38843 | 117 ft | 2 kts | 173° |
| 2026-05-06 20:54 | 33.93447 | -118.38844 | 120 ft | 0 kts | 173° |
| 2026-05-06 20:55 | 33.93440 | -118.38857 | 119 ft | 4 kts | 273° |
| 2026-05-06 20:55 | 33.93446 | -118.38865 | 119 ft | 0 kts | 312° |
| 2026-05-06 20:56 | 33.93446 | -118.38866 | 119 ft | 2 kts | 314° |
| 2026-05-06 20:56 | 33.93487 | -118.38851 | 120 ft | 11 kts | 3° |
| 2026-05-06 20:57 | 33.93552 | -118.38815 | 119 ft | 12 kts | 68° |
| 2026-05-06 20:57 | 33.93568 | -118.38711 | 120 ft | 13 kts | 83° |
| 2026-05-06 20:57 | 33.93580 | -118.38595 | 116 ft | 15 kts | 83° |
| 2026-05-06 20:57 | 33.93593 | -118.38468 | 120 ft | 16 kts | 83° |
| 2026-05-06 20:58 | 33.93605 | -118.38340 | 120 ft | 2 kts | 84° |
| 2026-05-06 20:58 | 33.93614 | -118.38303 | 118 ft | 7 kts | 64° |
| 2026-05-06 20:58 | 33.93641 | -118.38279 | 120 ft | 0 kts | 15° |
| 2026-05-06 20:59 | 33.93649 | -118.38277 | 117 ft | 7 kts | 12° |
| 2026-05-06 21:00 | 33.93728 | -118.38285 | 120 ft | 10 kts | 324° |
| 2026-05-06 21:00 | 33.93733 | -118.38314 | 118 ft | 0 kts | 267° |
| 2026-05-06 21:01 | 33.93733 | -118.38321 | 122 ft | 10 kts | 267° |
| 2026-05-06 21:02 | 33.93690 | -118.38721 | 120 ft | 88 kts | 263° |
| 2026-05-06 21:02 | 33.93587 | -118.39730 | 170 ft | 150 kts | 263° |
| 2026-05-06 21:02 | 33.93450 | -118.41103 | 751 ft | 180 kts | 262° |
| 2026-05-06 21:02 | 33.93295 | -118.42658 | 1799 ft | 192 kts | 261° |
| 2026-05-06 21:03 | 33.93110 | -118.44300 | 2985 ft | 201 kts | 263° |
| 2026-05-06 21:03 | 33.92950 | -118.46086 | 3661 ft | 226 kts | 268° |
| 2026-05-06 21:03 | 33.92883 | -118.48050 | 4094 ft | 249 kts | 271° |
| 2026-05-06 21:03 | 33.92831 | -118.50240 | 4500 ft | 270 kts | 269° |
| 2026-05-06 21:04 | 33.92651 | -118.52538 | 4998 ft | 288 kts | 266° |
| 2026-05-06 21:04 | 33.92420 | -118.55068 | 5013 ft | 315 kts | 266° |
| 2026-05-06 21:04 | 33.92189 | -118.57656 | 5003 ft | 307 kts | 266° |
| 2026-05-06 21:04 | 33.91985 | -118.60179 | 4994 ft | 298 kts | 267° |
| 2026-05-06 21:05 | 33.91804 | -118.62558 | 5380 ft | 275 kts | 267° |
| 2026-05-06 21:05 | 33.91761 | -118.64887 | 6371 ft | 274 kts | 274° |
| 2026-05-06 21:05 | 33.91804 | -118.67164 | 7761 ft | 280 kts | 273° |
| 2026-05-06 21:05 | 33.91797 | -118.69557 | 9003 ft | 290 kts | 271° |
| 2026-05-06 21:06 | 33.91742 | -118.72034 | 10236 ft | 301 kts | 271° |
| 2026-05-06 21:06 | 33.91707 | -118.74674 | 11035 ft | 328 kts | 272° |
| 2026-05-06 21:06 | 33.91718 | -118.77448 | 12345 ft | 332 kts | 274° |
| 2026-05-06 21:06 | 33.91731 | -118.80264 | 13668 ft | 340 kts | 273° |
| 2026-05-06 21:07 | 33.91714 | -118.83148 | 14846 ft | 347 kts | 273° |
| 2026-05-06 21:07 | 33.91764 | -118.86029 | 15972 ft | 352 kts | 275° |
| 2026-05-06 21:07 | 33.91859 | -118.89001 | 17092 ft | 358 kts | 276° |
| 2026-05-06 21:07 | 33.91970 | -118.92019 | 18196 ft | 364 kts | 276° |
| 2026-05-06 21:08 | 33.92066 | -118.95097 | 19153 ft | 370 kts | 276° |
| 2026-05-06 21:08 | 33.92156 | -118.98216 | 20073 ft | 375 kts | 278° |
| 2026-05-06 21:08 | 33.92658 | -119.01292 | 20972 ft | 374 kts | 291° |
| 2026-05-06 21:08 | 33.93605 | -119.04201 | 21872 ft | 374 kts | 302° |
| 2026-05-06 21:09 | 33.94959 | -119.06879 | 22745 ft | 376 kts | 308° |
| 2026-05-06 21:09 | 33.96387 | -119.09546 | 23607 ft | 382 kts | 307° |
| 2026-05-06 21:09 | 33.97762 | -119.12318 | 24334 ft | 388 kts | 305° |
| 2026-05-06 21:09 | 33.99144 | -119.15128 | 25033 ft | 392 kts | 306° |
| 2026-05-06 21:10 | 34.00731 | -119.17789 | 25721 ft | 390 kts | 316° |
| 2026-05-06 21:10 | 34.02680 | -119.20069 | 26407 ft | 389 kts | 325° |
| 2026-05-06 21:10 | 34.04838 | -119.21979 | 27067 ft | 390 kts | 330° |
| 2026-05-06 21:10 | 34.07110 | -119.23816 | 27732 ft | 394 kts | 330° |
| 2026-05-06 21:11 | 34.09393 | -119.25741 | 28019 ft | 410 kts | 329° |
| 2026-05-06 21:11 | 34.11730 | -119.27836 | 28124 ft | 428 kts | 327° |
| 2026-05-06 21:11 | 34.14178 | -119.30031 | 28142 ft | 446 kts | 328° |
| 2026-05-06 21:11 | 34.16764 | -119.32237 | 28136 ft | 459 kts | 329° |
| 2026-05-06 21:12 | 34.19396 | -119.34421 | 28144 ft | 460 kts | 329° |
| 2026-05-06 21:12 | 34.24587 | -119.38925 | 28134 ft | 465 kts | 327° |
| 2026-05-06 21:13 | 34.29838 | -119.43534 | 28132 ft | 467 kts | 329° |
| 2026-05-06 21:13 | 34.34283 | -119.47268 | 28124 ft | 469 kts | 328° |